Tiempo atmosférico en la estación meteorológica de Haría, Las Palmas (277 m.)



Fecha
DESCASC
Temp. máxima en grados centígrados (hora)
DESCASC
Temp. mínima en grados centígrados (hora)
DESCASC
Temp. media en grados centígrados
DESCASC
Racha de viento máxima en m/sg (hora)
DESCASC
Velocidad máxima media en intervalos de 10 minutos(hora)
DESCASC
Precipitaciones diarias en mm
DESCASC
Precipitaciones de 00:00 a 06:00 en mm
DESCASC
Precipitaciones de 06:00 a 12:00 en mm
DESCASC
Precipitaciones de 12:00 a 18:00 en mm
DESCASC
Precipitaciones de 18:00 a 24:00 en mm
DESCASC
22-08-2019 25.7 (15:00) 18.6 (05:40) 22.2 13.06 (00:30) 9.44 (10:20) 0 0 0 0 0
21-08-2019 23.6 (15:10) 18.7 (02:00) 21.2 15.56 (21:10) 10.56 (18:00) 0 0 0 0 0
20-08-2019 25.4 (12:50) 18.5 (06:00) 21.9 12.78 (13:30) 8.61 (13:30) 0 0 0 0 0
19-08-2019 25.7 (14:40) 19.1 (07:50) 22.4 12.5 (23:00) 8.89 (23:00) 0 0 0 0 0
18-08-2019 28.6 (12:20) 20.3 (00:00) 24.4 11.39 (23:10) 8.33 (23:00) 0 0 0 0 0
17-08-2019 29.1 (15:40) 22.7 (00:00) 25.9 15.83 (21:50) 8.33 (22:30) 0 0 0 0 0
16-08-2019 28.3 (14:40) 21.6 (00:00) 24.9 17.22 (06:40) 10.56 (06:40) 0 0 0 0 0
15-08-2019 25.9 (16:00) 19.5 (00:00) 22.7 14.17 (22:20) 8.61 (00:50) 0 0 0 0 0
14-08-2019 26.2 (15:20) 18.7 (00:00) 22.5 13.61 (04:30) 8.89 (20:50) 0 0 0 0 0
13-08-2019 24.2 (16:00) 18.5 (00:00) 21.4 14.44 (17:50) 10.28 (11:30) 0 0 0 0 0
12-08-2019 24 (15:00) 18.8 (00:00) 21.4 16.67 (15:00) 10.83 (11:10) 0 0 0 0 0
11-08-2019 23.7 (14:20) 19.5 (00:00) 21.6 16.39 (03:20) 10.28 (03:10) 0 0 0 0 0
10-08-2019 26.3 (17:30) 19.9 (00:00) 23.1 13.61 (14:40) 10 (14:20) 0 0 0 0 0
09-08-2019 25.2 (14:10) 17.9 (00:00) 21.6 9.17 (15:30) 6.39 (16:10) 0 0 0 0 0
08-08-2019 25.4 (17:00) 18.4 (00:00) 21.9 8.33 (19:50) 6.11 (11:10) 0 0 0 0 0
07-08-2019 23.8 (16:20) 18.7 (00:00) 21.3 11.94 (11:40) 8.61 (11:40) 0 0 0 0 0
06-08-2019 23.7 (16:20) 19 (00:00) 21.4 13.89 (01:10) 9.17 (14:00) 0 0 0 0 0
05-08-2019 24.5 (15:50) 19 (00:00) 21.8 14.17 (16:40) 9.17 (16:50) 0 0 0 0 0
04-08-2019 23.7 (14:50) 18.6 (00:00) 21.2 13.89 (17:50) 9.72 (16:20) 0 0 0 0 0
03-08-2019 23.3 (15:10) 18.1 (00:00) 20.7 13.06 (15:30) 8.89 (14:20) 0 0 0 0 0
02-08-2019 23.7 (13:50) 18.4 (00:00) 21.1 13.33 (18:30) 9.72 (18:50) 0 0 0 0 0
01-08-2019 23.8 (15:40) 18 (00:00) 20.9 12.78 (15:50) 8.89 (17:50) 0 0 0 0 0
31-07-2019 22.7 (13:50) 18 (00:00) 20.4 15.28 (17:50) 10 (12:40) 0 0 0 0 0
30-07-2019 23 (16:10) 18.3 (00:00) 20.6 17.5 (22:20) 10.83 (16:40) 0 0 0 0 0
29-07-2019 23.4 (15:10) 18.7 (00:00) 21.1 16.67 (21:40) 10.28 (21:10) 0 0 0 0 0
28-07-2019 22.8 (17:00) 19.2 (00:00) 21 16.39 (17:50) 8.33 (18:20) 0.4 0 0.2 0.2 0
27-07-2019 22.8 (15:00) 18.2 (00:00) 20.5 13.89 (17:50) 9.17 (16:30) 0 0 0 0 0
26-07-2019 23.3 (14:30) 19 (00:00) 21.1 15.28 (18:10) 8.89 (20:40) 0 0 0 0 0

Gráficas

Temp. máximas Temp. mínimas Temp. medias Precipitaciones Rachas de viento máximas Velocidades máximas media en intervalos de 10 minutos

Datos horarios

Fecha y hora oficial Temperatura (ºC) Velocidad del viento (km/h) Dirección del viento Racha (km/h) Dirección de racha Precipitación (mm) Presión (hPa) Tendencia (hPa) Humedad (%)
2019-08-24 23:00:00 21.4 8 Este 23 Sudeste 0 -- -- 89
2019-08-24 22:00:00 22 11 Nordeste 37 Este 0 -- -- 84
2019-08-24 21:00:00 25.6 19 Norte 39 Norte 0 -- -- 50
2019-08-24 20:00:00 30.4 21 Noroeste 41 Norte 0 -- -- 19
2019-08-24 19:00:00 28.5 23 Norte 35 Norte 0 -- -- 32
2019-08-24 18:00:00 29 22 Norte 37 Norte 0 -- -- 35
2019-08-24 17:00:00 29.7 22 Norte 40 Norte 0 -- -- 37
2019-08-24 16:00:00 29.4 20 Nordeste 28 Nordeste 0 -- -- 40
2019-08-24 15:00:00 27.4 11 Nordeste 24 Nordeste 0 -- -- 55
2019-08-24 14:00:00 25.7 11 Nordeste 26 Nordeste 0 -- -- 67
2019-08-24 13:00:00 25.4 10 Nordeste 23 Nordeste 0 -- -- 68
2019-08-24 12:00:00 25.4 12 Nordeste 24 Norte 0 -- -- 69
2019-08-24 11:00:00 25.4 12 Norte 28 Norte 0 -- -- 67
2019-08-24 10:00:00 29.8 8 Nordeste 36 Norte 0 -- -- 43
2019-08-24 09:00:00 28.4 18 Noroeste 32 Noroeste 0 -- -- 33
2019-08-24 08:00:00 29.2 23 Noroeste 37 Noroeste 0 -- -- 31
2019-08-24 07:00:00 25.7 21 Noroeste 38 Oeste 0 -- -- 53
2019-08-24 06:00:00 25.1 27 Oeste 39 Oeste 0 -- -- 55
2019-08-24 05:00:00 29.6 24 Noroeste 42 Norte 0 -- -- 28
2019-08-24 04:00:00 28.6 22 Noroeste 37 Noroeste 0 -- -- 19
2019-08-24 03:00:00 28.7 13 Norte 26 Norte 0 -- -- 17
2019-08-24 02:00:00 26 12 Norte 23 Norte 0 -- -- 37
2019-08-24 01:00:00 22.8 9 Noroeste 27 Norte 0 -- -- 68
2019-08-24 00:00:00 26.4 21 Norte 38 Norte 0 -- -- 37
2019-08-23 23:00:00 27.3 20 Norte 37 Norte 0 -- -- 32
2019-08-23 22:00:00 26.2 24 Norte 40 Noroeste 0 -- -- 46
2019-08-23 21:00:00 25.8 13 Noroeste 31 Noroeste 0 -- -- 54
2019-08-23 20:00:00 25.9 10 Norte 22 Norte 0 -- -- 48
2019-08-23 19:00:00 27.2 10 Norte 28 Norte 0 -- -- 55
2019-08-23 18:00:00 30.6 12 Norte 30 Norte 0 -- -- 38
2019-08-23 17:00:00 30.6 10 Norte 23 Norte 0 -- -- 34
2019-08-23 16:00:00 29.7 10 Nordeste 26 Nordeste 0 -- -- 44
2019-08-23 15:00:00 30 9 Norte 31 Norte 0 -- -- 47
2019-08-23 14:00:00 31 16 Norte 28 Norte 0 -- -- 36
2019-08-23 13:00:00 29.1 14 Norte 31 Norte 0 -- -- 39
2019-08-23 12:00:00 26.3 22 Norte 31 Norte 0 -- -- 53
2019-08-23 11:00:00 27.9 6 Noroeste 36 Oeste 0 -- -- 50
2019-08-23 10:00:00 22.2 33 Oeste 42 Oeste 0 -- -- 77
2019-08-23 09:00:00 23.5 22 Oeste 41 Oeste 0 -- -- 66
2019-08-23 08:00:00 22.6 28 Oeste 40 Oeste 0 -- -- 70
2019-08-23 07:00:00 26.6 25 Noroeste 35 Noroeste 0 -- -- 45
2019-08-23 06:00:00 23.6 24 Noroeste 35 Noroeste 0 -- -- 54
2019-08-23 05:00:00 23.2 14 Noroeste 26 Oeste 0 -- -- 57
2019-08-23 04:00:00 21.4 15 Noroeste 27 Norte 0 -- -- 70
2019-08-23 03:00:00 19.9 17 Norte 31 Norte 0 -- -- 86
2019-08-23 02:00:00 19.8 21 Norte 33 Noroeste 0 -- -- 89
2019-08-23 01:00:00 20.1 18 Norte 38 Noroeste 0 -- -- 83
2019-08-23 00:00:00 21.1 25 Noroeste 39 Noroeste 0 -- -- 74
2019-08-22 23:00:00 22.4 24 Noroeste 37 Noroeste 0 -- -- 59
2019-08-22 22:00:00 21.9 24 Noroeste 40 Noroeste 0 -- -- 65
2019-08-22 21:00:00 21.7 14 Noroeste 32 Norte 0 -- -- 66
2019-08-22 20:00:00 23.1 17 Noroeste 40 Noroeste 0 -- -- 66
2019-08-22 19:00:00 22.9 25 Noroeste 41 Noroeste 0 -- -- 69
2019-08-22 18:00:00 24.4 22 Noroeste 41 Noroeste 0 -- -- 63
2019-08-22 17:00:00 24.4 30 Noroeste 41 Noroeste 0 -- -- 64
2019-08-22 16:00:00 25.5 24 Noroeste 34 Noroeste 0 -- -- 61
2019-08-22 15:00:00 25.7 18 Noroeste 31 Noroeste 0 -- -- 60
2019-08-22 14:00:00 25.1 16 Norte 35 Noroeste 0 -- -- 62
2019-08-22 13:00:00 24.2 31 Noroeste 41 Noroeste 0 -- -- 68
2019-08-22 12:00:00 23 27 Noroeste 41 Noroeste 0 -- -- 72
2019-08-22 11:00:00 24.7 24 Noroeste 45 Noroeste 0 -- -- 54
2019-08-22 10:00:00 21.8 20 Norte 39 Norte 0 -- -- 82
2019-08-22 09:00:00 19.6 16 Norte 33 Norte 0 -- -- 92
2019-08-22 08:00:00 18.8 21 Noroeste 42 Noroeste 0 -- -- 92
2019-08-22 07:00:00 18.7 30 Noroeste 44 Noroeste 0 -- -- 91
2019-08-22 06:00:00 18.6 21 Norte 38 Norte 0 -- -- 90
2019-08-22 05:00:00 18.7 26 Norte 39 Norte 0 -- -- 91
2019-08-22 04:00:00 18.7 21 Norte 39 Norte 0 -- -- 90
2019-08-22 03:00:00 18.8 22 Norte 39 Norte 0 -- -- 89
2019-08-22 02:00:00 18.8 23 Noroeste 44 Noroeste 0 -- -- 90
2019-08-22 01:00:00 18.9 29 Noroeste 47 Noroeste 0 -- -- 91
2019-08-22 00:00:00 19 27 Noroeste 38 Noroeste 0 -- -- 89
2019-08-21 23:00:00 19 23 Noroeste 41 Noroeste 0 -- -- 89
2019-08-21 22:00:00 19.1 31 Noroeste 56 Noroeste 0 -- -- 89
2019-08-21 21:00:00 19.3 34 Noroeste 51 Noroeste 0 -- -- 88
2019-08-21 20:00:00 19.7 33 Noroeste 52 Norte 0 -- -- 84
2019-08-21 19:00:00 20.8 30 Noroeste 54 Norte 0 -- -- 79
2019-08-21 18:00:00 21.6 38 Noroeste 53 Norte 0 -- -- 75
2019-08-21 17:00:00 22.5 31 Norte 50 Norte 0 -- -- 72
2019-08-21 16:00:00 22.9 31 Norte 46 Norte 0 -- -- 70
2019-08-21 15:00:00 23.1 29 Norte 44 Norte 0 -- -- 71
2019-08-21 14:00:00 22.8 33 Norte 47 Norte 0 -- -- 71
2019-08-21 13:00:00 22.8 26 Norte 44 Norte 0 -- -- 73
2019-08-21 12:00:00 22.1 32 Norte 43 Norte 0 -- -- 75
2019-08-21 11:00:00 21.4 30 Norte 43 Norte 0 -- -- 77
2019-08-21 10:00:00 20.5 29 Norte 42 Norte 0 -- -- 81
2019-08-21 09:00:00 19.8 24 Norte 45 Norte 0 -- -- 84
2019-08-21 08:00:00 18.8 27 Norte 45 Norte 0 -- -- 87
2019-08-21 07:00:00 18.9 24 Norte 45 Norte 0 -- -- 87
2019-08-21 06:00:00 19 23 Norte 40 Norte 0 -- -- 87
2019-08-21 05:00:00 18.9 22 Norte 43 Norte 0 -- -- 89
2019-08-21 04:00:00 18.8 24 Norte 43 Norte 0 -- -- 89
2019-08-21 03:00:00 18.7 22 Noroeste 41 Norte 0 -- -- 89
2019-08-21 02:00:00 18.7 25 Norte 36 Norte 0 -- -- 90
2019-08-21 01:00:00 18.9 21 Norte 39 Norte 0 -- -- 88
2019-08-21 00:00:00 19.1 17 Norte 33 Norte 0 -- -- 85
2019-08-20 23:00:00 19.2 19 Noroeste 34 Norte 0 -- -- 86
2019-08-20 22:00:00 19.3 19 Noroeste 38 Noroeste 0 -- -- 87
2019-08-20 21:00:00 19.5 26 Noroeste 44 Noroeste 0 -- -- 86
2019-08-20 20:00:00 20.6 25 Noroeste 40 Norte 0 -- -- 79
2019-08-20 19:00:00 21.5 29 Norte 41 Norte 0 -- -- 76
2019-08-20 18:00:00 22.6 22 Norte 39 Norte 0 -- -- 73
2019-08-20 17:00:00 23.3 25 Norte 41 Norte 0 -- -- 70
2019-08-20 16:00:00 23.6 27 Norte 43 Norte 0 -- -- 67
2019-08-20 15:00:00 23.9 29 Norte 45 Norte 0 -- -- 66
2019-08-20 14:00:00 25 25 Norte 46 Norte 0 -- -- 56
2019-08-20 13:00:00 25.2 28 Norte 40 Norte 0 -- -- 57
2019-08-20 12:00:00 24.6 21 Norte 37 Norte 0 -- -- 62
2019-08-20 11:00:00 24.4 17 Norte 35 Norte 0 -- -- 56
2019-08-20 10:00:00 22 16 Norte 35 Norte 0 -- -- 75
2019-08-20 09:00:00 20.1 20 Norte 35 Noroeste 0 -- -- 88
2019-08-20 08:00:00 19.1 22 Norte 35 Norte 0 -- -- 91
2019-08-20 07:00:00 18.7 18 Norte 27 Norte 0 -- -- 93
2019-08-20 06:00:00 18.5 8 Norte 19 Norte 0 -- -- 94
2019-08-20 05:00:00 18.9 10 Nordeste 27 Nordeste 0 -- -- 94
2019-08-20 04:00:00 19.2 14 Nordeste 24 Nordeste 0 -- -- 93
2019-08-20 03:00:00 19 13 Nordeste 29 Nordeste 0 -- -- 93
2019-08-20 02:00:00 19.1 14 Norte 32 Norte 0 -- -- 93
2019-08-20 01:00:00 19.2 18 Norte 30 Norte 0 -- -- 92
2019-08-20 00:00:00 19.3 20 Norte 39 Norte 0 -- -- 92
2019-08-19 23:00:00 19.3 32 Norte 45 Norte 0 -- -- 91
2019-08-19 22:00:00 19.5 21 Norte 37 Norte 0 -- -- 90
2019-08-19 21:00:00 20.2 9 Norte 28 Norte 0 -- -- 88
2019-08-19 20:00:00 21 18 Norte 31 Norte 0 -- -- 85
2019-08-19 19:00:00 22.2 19 Norte 38 Norte 0 -- -- 78
2019-08-19 18:00:00 24 15 Nordeste 32 Norte 0 -- -- 72
2019-08-19 17:00:00 24.9 17 Nordeste 27 Norte 0 -- -- 66
2019-08-19 16:00:00 25.4 15 Norte 27 Nordeste 0 -- -- 63
2019-08-19 15:00:00 25.3 15 Nordeste 27 Nordeste 0 -- -- 64
2019-08-19 14:00:00 24.7 14 Norte 28 Norte 0 -- -- 70
2019-08-19 13:00:00 24.2 14 Nordeste 30 Nordeste 0 -- -- 71
2019-08-19 12:00:00 22.7 14 Nordeste 26 Nordeste 0 -- -- 80
2019-08-19 11:00:00 21.1 12 Nordeste 23 Nordeste 0 -- -- 89
2019-08-19 10:00:00 20.4 12 Nordeste 24 Nordeste 0 -- -- 93
2019-08-19 09:00:00 19.9 11 Norte 24 Norte 0 -- -- 95
2019-08-19 08:00:00 19.2 13 Norte 24 Norte 0 -- -- 95
2019-08-19 07:00:00 19.4 10 Norte 31 Norte 0 -- -- 92
2019-08-19 06:00:00 20 14 Norte 34 Norte 0 -- -- 84
2019-08-19 05:00:00 20.6 22 Norte 35 Norte 0 -- -- 76
2019-08-19 04:00:00 19.6 21 Norte 31 Norte 0 -- -- 89
2019-08-19 03:00:00 19.9 12 Nordeste 33 Norte 0 -- -- 88
2019-08-19 02:00:00 19.4 6 Norte 28 Norte 0 -- -- 93
2019-08-19 01:00:00 19.8 10 Norte 24 Nordeste 0 -- -- 91
2019-08-19 00:00:00 20.3 18 Norte 41 Norte 0 -- -- 84
2019-08-18 23:00:00 21.7 30 Norte 39 Norte 0 -- -- 71
2019-08-18 22:00:00 21.5 21 Norte 32 Noroeste 0 -- -- 73
2019-08-18 21:00:00 22.3 14 Norte 28 Norte 0 -- -- 66
2019-08-18 20:00:00 24 14 Norte 25 Norte 0 -- -- 52
2019-08-18 19:00:00 24.6 15 Norte 33 Norte 0 -- -- 58
2019-08-18 18:00:00 25.3 15 Norte 31 Norte 0 -- -- 58
2019-08-18 17:00:00 25.8 18 Norte 35 Norte 0 -- -- 59
2019-08-18 16:00:00 26 18 Norte 36 Norte 0 -- -- 60
2019-08-18 15:00:00 26.5 22 Norte 34 Norte 0 -- -- 59
2019-08-18 14:00:00 26.5 18 Nordeste 32 Norte 0 -- -- 58
2019-08-18 13:00:00 27.7 17 Norte 29 Nordeste 0 -- -- 48
2019-08-18 12:00:00 28.1 14 Norte 28 Norte 0 -- -- 46
2019-08-18 11:00:00 26.1 15 Norte 36 Norte 0 -- -- 53
2019-08-18 10:00:00 25.7 10 Norte 32 Norte 0 -- -- 56
2019-08-18 09:00:00 24 18 Norte 36 Norte 0 -- -- 60
2019-08-18 08:00:00 22.4 18 Norte 34 Norte 0 -- -- 68
2019-08-18 07:00:00 21.8 19 Norte 35 Norte 0 -- -- 72
2019-08-18 06:00:00 21.5 19 Norte 39 Norte 0 -- -- 75
2019-08-18 05:00:00 21.9 18 Norte 39 Norte 0 -- -- 70
2019-08-18 04:00:00 21 15 Norte 33 Norte 0 -- -- 77
2019-08-18 03:00:00 20.7 10 Norte 36 Nordeste 0 -- -- 78
2019-08-18 02:00:00 22.2 13 Norte 34 Norte 0 -- -- 66
2019-08-18 01:00:00 22.7 17 Nordeste 32 Nordeste 0 -- -- 63
2019-08-18 00:00:00 23.7 17 Nordeste 40 Norte 0 -- -- 58
2019-08-17 23:00:00 25 23 Norte 45 Norte 0 -- -- 47
2019-08-17 22:00:00 24.6 27 Norte 57 Norte 0 -- -- 50
2019-08-17 21:00:00 25.2 22 Norte 41 Norte 0 -- -- 49
2019-08-17 20:00:00 25.8 14 Norte 37 Norte 0 -- -- 48
2019-08-17 19:00:00 27.1 12 Norte 36 Nordeste 0 -- -- 44
2019-08-17 18:00:00 28 18 Norte 33 Norte 0 -- -- 42
2019-08-17 17:00:00 28.1 18 Norte 37 Noroeste 0 -- -- 48
2019-08-17 16:00:00 28.6 13 Nordeste 33 Norte 0 -- -- 48
2019-08-17 15:00:00 28.9 15 Norte 32 Norte 0 -- -- 47
2019-08-17 14:00:00 28.8 21 Norte 40 Norte 0 -- -- 46
2019-08-17 13:00:00 28.7 21 Nordeste 38 Norte 0 -- -- 45
2019-08-17 12:00:00 28 17 Nordeste 40 Norte 0 -- -- 47
2019-08-17 11:00:00 27.6 20 Norte 44 Norte 0 -- -- 47
2019-08-17 10:00:00 26.6 19 Nordeste 47 Norte 0 -- -- 48
2019-08-17 09:00:00 25.1 22 Norte 44 Norte 0 -- -- 54
2019-08-17 08:00:00 23.4 19 Nordeste 42 Norte 0 -- -- 62
2019-08-17 07:00:00 23.6 20 Nordeste 40 Norte 0 -- -- 63
2019-08-17 06:00:00 24.4 25 Norte 44 Norte 0 -- -- 58
2019-08-17 05:00:00 23.8 24 Norte 44 Norte 0 -- -- 58
2019-08-17 04:00:00 23.4 20 Norte 39 Norte 0 -- -- 63
2019-08-17 03:00:00 23.3 22 Norte 50 Norte 0 -- -- 66
2019-08-17 02:00:00 23.5 24 Norte 40 Norte 0 -- -- 68
2019-08-17 01:00:00 23.1 18 Nordeste 45 Norte 0 -- -- 72
2019-08-17 00:00:00 24 23 Norte 55 Norte 0 -- -- 66
2019-08-16 23:00:00 24.7 35 Norte 59 Norte 0 -- -- 57
2019-08-16 22:00:00 24.6 22 Norte 51 Norte 0 -- -- 58
2019-08-16 21:00:00 24.8 24 Norte 50 Norte 0 -- -- 59
2019-08-16 20:00:00 24.9 23 Norte 44 Norte 0 -- -- 61
2019-08-16 19:00:00 25.6 18 Norte 38 Norte 0 -- -- 60
2019-08-16 18:00:00 25.9 20 Norte 36 Norte 0 -- -- 60
2019-08-16 17:00:00 26.3 9 Noroeste 27 Norte 0 -- -- 59
2019-08-16 16:00:00 27.2 10 Norte 30 Norte 0 -- -- 52
2019-08-16 15:00:00 27.6 13 Norte 35 Norte 0 -- -- 53
2019-08-16 14:00:00 26.8 17 Norte 39 Norte 0 -- -- 55
2019-08-16 13:00:00 26.1 15 Norte 33 Norte 0 -- -- 54
2019-08-16 12:00:00 26.1 15 Norte 33 Norte 0 -- -- 51
2019-08-16 11:00:00 25.4 15 Norte 33 Norte 0 -- -- 55
2019-08-16 10:00:00 26.2 13 Norte 32 Nordeste 0 -- -- 51
2019-08-16 09:00:00 25.7 14 Norte 45 Norte 0 -- -- 51
2019-08-16 08:00:00 23.7 22 Norte 50 Norte 0 -- -- 59
2019-08-16 07:00:00 23.4 27 Norte 62 Norte 0 -- -- 61
2019-08-16 06:00:00 21.7 20 Norte 48 Norte 0 -- -- 76
2019-08-16 05:00:00 22.7 19 Norte 52 Norte 0 -- -- 68
2019-08-16 04:00:00 24.3 33 Noroeste 57 Nordeste 0 -- -- 57
2019-08-16 03:00:00 21.9 17 Norte 39 Norte 0 -- -- 76
2019-08-16 02:00:00 21.7 13 Norte 35 Norte 0 -- -- 76
2019-08-16 01:00:00 22.4 16 Norte 41 Norte 0 -- -- 71
2019-08-16 00:00:00 22.6 22 Norte 40 Norte 0 -- -- 69
2019-08-15 23:00:00 23.3 25 Norte 51 Noroeste 0 -- -- 64
2019-08-15 22:00:00 23.6 23 Norte 48 Norte 0 -- -- 60
2019-08-15 21:00:00 23.7 23 Norte 47 Norte 0 -- -- 60
2019-08-15 20:00:00 24 29 Norte 47 Norte 0 -- -- 63
2019-08-15 19:00:00 25.3 25 Norte 46 Norte 0 -- -- 59
2019-08-15 18:00:00 25.3 28 Norte 46 Norte 0 -- -- 62
2019-08-15 17:00:00 25.2 27 Norte 42 Norte 0 -- -- 65
2019-08-15 16:00:00 25.9 28 Norte 50 Norte 0 -- -- 66
2019-08-15 15:00:00 24.4 30 Norte 46 Norte 0 -- -- 74
2019-08-15 14:00:00 24.4 30 Norte 42 Norte 0 -- -- 74
2019-08-15 13:00:00 24.1 23 Norte 38 Norte 0 -- -- 76
2019-08-15 12:00:00 23 21 Norte 40 Norte 0 -- -- 81
2019-08-15 11:00:00 22.4 20 Norte 40 Norte 0 -- -- 83
2019-08-15 10:00:00 21.1 28 Norte 40 Norte 0 -- -- 87
2019-08-15 09:00:00 20.6 20 Noroeste 39 Noroeste 0 -- -- 90
2019-08-15 08:00:00 19.5 23 Noroeste 33 Noroeste 0 -- -- 93
2019-08-15 07:00:00 19.5 17 Norte 33 Norte 0 -- -- 93
2019-08-15 06:00:00 19.5 22 Noroeste 44 Noroeste 0 -- -- 93
2019-08-15 05:00:00 20 31 Noroeste 48 Noroeste 0 -- -- 89
2019-08-15 04:00:00 20.2 26 Noroeste 44 Noroeste 0 -- -- 86
2019-08-15 03:00:00 20.2 28 Noroeste 44 Noroeste 0 -- -- 86
2019-08-15 02:00:00 20.4 30 Noroeste 48 Noroeste 0 -- -- 82
2019-08-15 01:00:00 20 27 Noroeste 44 Noroeste 0 -- -- 86
2019-08-15 00:00:00 19.9 30 Noroeste 43 Noroeste 0 -- -- 87
2019-08-14 23:00:00 20.3 28 Noroeste 40 Noroeste 0 -- -- 81
2019-08-14 22:00:00 20.1 26 Noroeste 42 Noroeste 0 -- -- 85
2019-08-14 21:00:00 20.1 32 Noroeste 48 Noroeste 0 -- -- 86
2019-08-14 20:00:00 20.8 30 Noroeste 43 Noroeste 0 -- -- 83
2019-08-14 19:00:00 22.9 26 Noroeste 39 Noroeste 0 -- -- 74
2019-08-14 18:00:00 24.8 22 Noroeste 38 Norte 0 -- -- 66
2019-08-14 17:00:00 25.4 20 Norte 38 Norte 0 -- -- 65
2019-08-14 16:00:00 25.4 23 Norte 41 Norte 0 -- -- 59
2019-08-14 15:00:00 25.8 27 Norte 45 Norte 0 -- -- 50
2019-08-14 14:00:00 25.8 21 Norte 41 Norte 0 -- -- 48
2019-08-14 13:00:00 25.6 25 Norte 48 Norte 0 -- -- 54
2019-08-14 12:00:00 24.4 24 Norte 44 Norte 0 -- -- 56
2019-08-14 11:00:00 23.4 23 Norte 43 Norte 0 -- -- 63
2019-08-14 10:00:00 22.4 20 Norte 44 Norte 0 -- -- 72
2019-08-14 09:00:00 20.4 23 Noroeste 39 Noroeste 0 -- -- 83
2019-08-14 08:00:00 18.9 28 Noroeste 42 Noroeste 0 -- -- 90
2019-08-14 07:00:00 18.8 26 Noroeste 42 Noroeste 0 -- -- 89
2019-08-14 06:00:00 18.8 26 Noroeste 45 Noroeste 0 -- -- 89
2019-08-14 05:00:00 18.7 28 Noroeste 49 Noroeste 0 -- -- 90
2019-08-14 04:00:00 19.1 32 Noroeste 47 Noroeste 0 -- -- 85
2019-08-14 03:00:00 19.3 31 Noroeste 44 Noroeste 0 -- -- 83
2019-08-14 02:00:00 18.9 28 Noroeste 44 Noroeste 0 -- -- 87
2019-08-14 01:00:00 18.8 28 Noroeste 44 Noroeste 0 -- -- 90
2019-08-14 00:00:00 18.8 31 Noroeste 47 Noroeste 0 -- -- 90
2019-08-13 23:00:00 19 32 Noroeste 48 Noroeste 0 -- -- 89
2019-08-13 22:00:00 19 32 Noroeste 48 Noroeste 0 -- -- 89
2019-08-13 21:00:00 19.2 28 Noroeste 50 Noroeste 0 -- -- 88
2019-08-13 20:00:00 19.7 34 Noroeste 50 Noroeste 0 -- -- 84
2019-08-13 19:00:00 21.1 32 Noroeste 52 Noroeste 0 -- -- 78
2019-08-13 18:00:00 21.7 32 Noroeste 52 Norte 0 -- -- 75
2019-08-13 17:00:00 22.7 33 Noroeste 48 Noroeste 0 -- -- 70
2019-08-13 16:00:00 24.2 24 Noroeste 46 Norte 0 -- -- 63
2019-08-13 15:00:00 23 33 Norte 47 Norte 0 -- -- 67
2019-08-13 14:00:00 23.2 32 Norte 49 Norte 0 -- -- 67
2019-08-13 13:00:00 22.8 33 Norte 50 Norte 0 -- -- 70
2019-08-13 12:00:00 22.6 33 Norte 50 Norte 0 -- -- 70
2019-08-13 11:00:00 21.6 35 Norte 51 Norte 0 -- -- 74
2019-08-13 10:00:00 20.4 27 Norte 46 Norte 0 -- -- 78
2019-08-13 09:00:00 20 24 Norte 51 Norte 0 -- -- 81
2019-08-13 08:00:00 18.8 27 Norte 41 Norte 0 -- -- 86
2019-08-13 07:00:00 18.5 18 Norte 43 Norte 0 -- -- 86
2019-08-13 06:00:00 18.5 18 Norte 43 Norte 0 -- -- 86
2019-08-13 05:00:00 18.6 26 Norte 45 Norte 0 -- -- 85
2019-08-13 04:00:00 18.7 18 Norte 43 Noroeste 0 -- -- 85
2019-08-13 03:00:00 18.7 19 Noroeste 45 Noroeste 0 -- -- 86
2019-08-13 02:00:00 18.7 30 Norte 50 Noroeste 0 -- -- 88
2019-08-13 01:00:00 18.8 30 Noroeste 50 Noroeste 0 -- -- 88
2019-08-13 00:00:00 18.9 26 Norte 49 Noroeste 0 -- -- 88
2019-08-12 23:00:00 19 30 Noroeste 50 Noroeste 0 -- -- 87
2019-08-12 22:00:00 19.1 30 Noroeste 50 Norte 0 -- -- 87
2019-08-12 21:00:00 19.3 33 Noroeste 59 Noroeste 0 -- -- 86
2019-08-12 20:00:00 20 31 Noroeste 53 Norte 0 -- -- 82
2019-08-12 19:00:00 21 32 Noroeste 55 Noroeste 0 -- -- 78
2019-08-12 18:00:00 22.3 29 Noroeste 50 Norte 0 -- -- 73
2019-08-12 17:00:00 23.5 24 Norte 50 Norte 0 -- -- 67
2019-08-12 16:00:00 23 35 Norte 55 Norte 0 -- -- 68
2019-08-12 15:00:00 24 29 Norte 60 Norte 0 -- -- 67
2019-08-12 14:00:00 23.2 34 Norte 50 Norte 0 -- -- 70
2019-08-12 13:00:00 22.6 35 Norte 56 Norte 0 -- -- 70
2019-08-12 12:00:00 21.8 37 Norte 55 Norte 0 -- -- 74
2019-08-12 11:00:00 21.6 35 Norte 54 Norte 0 -- -- 75
2019-08-12 10:00:00 20.8 34 Norte 50 Norte 0 -- -- 81
2019-08-12 09:00:00 19.6 31 Norte 50 Norte 0 -- -- 86
2019-08-12 08:00:00 19.1 28 Norte 46 Norte 0 -- -- 88
2019-08-12 07:00:00 18.8 32 Norte 49 Norte 0 -- -- 89
2019-08-12 06:00:00 18.9 30 Norte 54 Norte 0 -- -- 89
2019-08-12 05:00:00 19.2 32 Norte 52 Norte 0 -- -- 87
2019-08-12 04:00:00 19.2 31 Norte 48 Norte 0 -- -- 88
2019-08-12 03:00:00 19.2 29 Norte 51 Norte 0 -- -- 89
2019-08-12 02:00:00 19.2 27 Norte 46 Norte 0 -- -- 88
2019-08-12 01:00:00 19.4 26 Norte 48 Norte 0 -- -- 87
2019-08-12 00:00:00 19.9 31 Norte 57 Norte 0 -- -- 81
2019-08-11 23:00:00 19.9 28 Norte 49 Norte 0 -- -- 79
2019-08-11 22:00:00 20.2 30 Norte 52 Norte 0 -- -- 73
2019-08-11 21:00:00 19.8 27 Norte 49 Norte 0 -- -- 82
2019-08-11 20:00:00 20.3 31 Norte 45 Norte 0 -- -- 82
2019-08-11 19:00:00 21.5 28 Norte 48 Norte 0 -- -- 77
2019-08-11 18:00:00 22.2 32 Norte 55 Norte 0 -- -- 75
2019-08-11 17:00:00 23 31 Norte 53 Norte 0 -- -- 72
2019-08-11 16:00:00 23.4 30 Norte 53 Norte 0 -- -- 71
2019-08-11 15:00:00 23.3 31 Norte 48 Norte 0 -- -- 72
2019-08-11 14:00:00 23.6 28 Norte 50 Norte 0 -- -- 71
2019-08-11 13:00:00 22.9 34 Norte 50 Norte 0 -- -- 74
2019-08-11 12:00:00 22.4 28 Norte 45 Norte 0 -- -- 76
2019-08-11 11:00:00 22.1 27 Norte 47 Norte 0 -- -- 80
2019-08-11 10:00:00 21.3 22 Norte 52 Norte 0 -- -- 82
2019-08-11 09:00:00 20.6 29 Norte 46 Norte 0 -- -- 86
2019-08-11 08:00:00 19.7 29 Norte 44 Norte 0 -- -- 88
2019-08-11 07:00:00 19.6 21 Norte 48 Norte 0 -- -- 85
2019-08-11 06:00:00 20 27 Norte 45 Noroeste 0 -- -- 82
2019-08-11 05:00:00 20.3 30 Noroeste 44 Norte 0 -- -- 87
2019-08-11 04:00:00 21 27 Noroeste 59 Norte 0 -- -- 81
2019-08-11 03:00:00 21.8 34 Norte 50 Norte 0 -- -- 77
2019-08-11 02:00:00 20.4 22 Norte 39 Noroeste 0 -- -- 85
2019-08-11 01:00:00 20.5 26 Norte 42 Norte 0 -- -- 85
2019-08-11 00:00:00 20.4 23 Norte 38 Norte 0 -- -- 91
2019-08-10 23:00:00 20.6 22 Norte 39 Norte 0 -- -- 93
2019-08-10 22:00:00 21 24 Norte 41 Noroeste 0 -- -- 93
2019-08-10 21:00:00 21.6 18 Norte 44 Norte 0 -- -- 90
2019-08-10 20:00:00 22.1 24 Norte 41 Noroeste 0 -- -- 88
2019-08-10 19:00:00 23.5 32 Noroeste 45 Noroeste 0 -- -- 78
2019-08-10 18:00:00 25.1 31 Noroeste 45 Noroeste 0 -- -- 71
2019-08-10 17:00:00 25.6 32 Norte 49 Norte 0 -- -- 68
2019-08-10 16:00:00 25.1 31 Norte 49 Norte 0 -- -- 71
2019-08-10 15:00:00 24.7 31 Norte 49 Norte 0 -- -- 75
2019-08-10 14:00:00 24.4 28 Norte 44 Norte 0 -- -- 77
2019-08-10 13:00:00 24.1 26 Norte 42 Norte 0 -- -- 77
2019-08-10 12:00:00 23.3 24 Norte 41 Norte 0 -- -- 81
2019-08-10 11:00:00 22.3 23 Norte 38 Norte 0 -- -- 88
2019-08-10 10:00:00 21.3 21 Norte 33 Norte 0 -- -- 90
2019-08-10 09:00:00 20.2 18 Norte 37 Norte 0 -- -- 94
2019-08-10 08:00:00 20.1 21 Norte 37 Norte 0 -- -- 95
2019-08-10 07:00:00 20 22 Norte 39 Norte 0 -- -- 94
2019-08-10 06:00:00 19.9 30 Noroeste 47 Noroeste 0 -- -- 93
2019-08-10 05:00:00 19.9 28 Noroeste 40 Noroeste 0 -- -- 91
2019-08-10 04:00:00 20.2 26 Noroeste 39 Noroeste 0 -- -- 86
2019-08-10 03:00:00 20.5 21 Noroeste 31 Norte 0 -- -- 82
2019-08-10 02:00:00 20.7 18 Noroeste 31 Norte 0 -- -- 80
2019-08-10 01:00:00 20.2 19 Norte 30 Norte 0 -- -- 84
2019-08-10 00:00:00 20 21 Norte 31 Norte 0 -- -- 86
2019-08-09 23:00:00 20.4 17 Norte 25 Norte 0 -- -- 81
2019-08-09 22:00:00 20.9 18 Noroeste 27 Noroeste 0 -- -- 77
2019-08-09 21:00:00 21.6 18 Noroeste 26 Norte 0 -- -- 69
2019-08-09 20:00:00 22.8 16 Noroeste 26 Noroeste 0 -- -- 67
2019-08-09 19:00:00 24.3 17 Norte 28 Norte 0 -- -- 62
2019-08-09 18:00:00 24.6 12 Norte 23 Nordeste 0 -- -- 68
2019-08-09 17:00:00 24.5 15 Nordeste 31 Norte 0 -- -- 69
2019-08-09 16:00:00 24.4 21 Norte 33 Nordeste 0 -- -- 72
2019-08-09 15:00:00 24.6 16 Nordeste 29 Nordeste 0 -- -- 70
2019-08-09 14:00:00 24.8 15 Nordeste 26 Nordeste 0 -- -- 67
2019-08-09 13:00:00 24 12 Nordeste 24 Nordeste 0 -- -- 71
2019-08-09 12:00:00 22.8 15 Nordeste 24 Nordeste 0 -- -- 77
2019-08-09 11:00:00 21.2 11 Norte 24 Nordeste 0 -- -- 85
2019-08-09 10:00:00 20.2 13 Norte 21 Nordeste 0 -- -- 90
2019-08-09 09:00:00 19.5 10 Nordeste 20 Nordeste 0 -- -- 93
2019-08-09 08:00:00 19.2 10 Nordeste 16 Norte 0 -- -- 94
2019-08-09 07:00:00 18.8 9 Nordeste 15 Nordeste 0 -- -- 94
2019-08-09 06:00:00 18.8 7 Nordeste 16 Norte 0 -- -- 94
2019-08-09 05:00:00 18.1 2 Oeste 14 Nordeste 0 -- -- 92
2019-08-09 04:00:00 18.4 4 Oeste 15 Norte 0 -- -- 91
2019-08-09 03:00:00 19.1 4 Nordeste 15 Nordeste 0 -- -- 91
2019-08-09 02:00:00 19.1 6 Norte 13 Nordeste 0 -- -- 91
2019-08-09 01:00:00 19.3 4 Norte 13 Nordeste 0 -- -- 91
2019-08-09 00:00:00 19.3 9 Nordeste 18 Nordeste 0 -- -- 91
2019-08-08 23:00:00 19.2 12 Nordeste 22 Norte 0 -- -- 91
2019-08-08 22:00:00 19.6 14 Norte 22 Norte 0 -- -- 87
2019-08-08 21:00:00 21.2 8 Noroeste 27 Oeste 0 -- -- 76
2019-08-08 20:00:00 22.6 20 Oeste 30 Oeste 0 -- -- 72
2019-08-08 19:00:00 24.5 16 Oeste 26 Nordeste 0 -- -- 66
2019-08-08 18:00:00 24.3 17 Nordeste 28 Nordeste 0 -- -- 69
2019-08-08 17:00:00 25.4 14 Nordeste 23 Nordeste 0 -- -- 65
2019-08-08 16:00:00 25 13 Nordeste 25 Nordeste 0 -- -- 66
2019-08-08 15:00:00 24.8 14 Nordeste 25 Nordeste 0 -- -- 66
2019-08-08 14:00:00 24.9 14 Este 27 Nordeste 0 -- -- 68
2019-08-08 13:00:00 24.3 13 Nordeste 28 Nordeste 0 -- -- 69
2019-08-08 12:00:00 24.1 20 Nordeste 30 Norte 0 -- -- 69
2019-08-08 11:00:00 23.2 19 Nordeste 27 Nordeste 0 -- -- 72
2019-08-08 10:00:00 21.3 12 Norte 23 Norte 0 -- -- 83
2019-08-08 09:00:00 19.6 9 Nordeste 17 Norte 0 -- -- 90
2019-08-08 08:00:00 18.5 11 Noroeste 19 Noroeste 0 -- -- 92
2019-08-08 07:00:00 18.8 5 Norte 10 Nordeste 0 -- -- 92
2019-08-08 06:00:00 18.4 4 Nordeste 13 Norte 0 -- -- 92
2019-08-08 05:00:00 19 4 Norte 23 Norte 0 -- -- 91
2019-08-08 04:00:00 19.2 11 Norte 22 Norte 0 -- -- 91
2019-08-08 03:00:00 19.4 9 Norte 21 Norte 0 -- -- 92
2019-08-08 02:00:00 19.6 10 Nordeste 22 Norte 0 -- -- 93
2019-08-08 01:00:00 19.5 11 Norte 27 Norte 0 -- -- 92
2019-08-08 00:00:00 19.4 18 Norte 27 Norte 0 -- -- 92
2019-08-07 23:00:00 19.5 8 Norte 25 Norte 0 -- -- 90
2019-08-07 22:00:00 19.9 14 Norte 27 Norte 0 -- -- 89
2019-08-07 21:00:00 20 15 Norte 27 Norte 0 -- -- 88
2019-08-07 20:00:00 21.1 17 Norte 32 Norte 0 -- -- 79
2019-08-07 19:00:00 22.1 22 Norte 33 Norte 0 -- -- 75
2019-08-07 18:00:00 22.7 19 Norte 32 Norte 0 -- -- 74
2019-08-07 17:00:00 23.4 20 Norte 33 Nordeste 0 -- -- 73
2019-08-07 16:00:00 23.7 19 Nordeste 30 Nordeste 0 -- -- 69
2019-08-07 15:00:00 23.3 14 Nordeste 32 Nordeste 0 -- -- 72
2019-08-07 14:00:00 22.9 19 Norte 35 Norte 0 -- -- 72
2019-08-07 13:00:00 22.3 22 Norte 36 Nordeste 0 -- -- 75
2019-08-07 12:00:00 23.1 21 Norte 43 Norte 0 -- -- 73
2019-08-07 11:00:00 21.8 25 Noroeste 43 Norte 0 -- -- 77
2019-08-07 10:00:00 20.8 30 Noroeste 40 Noroeste 0 -- -- 82
2019-08-07 09:00:00 19.7 17 Norte 29 Norte 0 -- -- 87
2019-08-07 08:00:00 19 17 Norte 33 Norte 0 -- -- 89
2019-08-07 07:00:00 19 14 Norte 35 Noroeste 0 -- -- 88
2019-08-07 06:00:00 19 15 Norte 31 Norte 0 -- -- 89
2019-08-07 05:00:00 18.8 17 Norte 33 Noroeste 0 -- -- 90
2019-08-07 04:00:00 18.7 23 Noroeste 35 Noroeste 0 -- -- 91
2019-08-07 03:00:00 18.8 22 Noroeste 35 Noroeste 0 -- -- 89
2019-08-07 02:00:00 19.4 23 Norte 40 Norte 0 -- -- 88
2019-08-07 01:00:00 19.5 18 Norte 32 Norte 0 -- -- 89
2019-08-07 00:00:00 19.6 15 Norte 32 Norte 0 -- -- 89
2019-08-06 23:00:00 19.5 14 Norte 36 Norte 0 -- -- 89
2019-08-06 22:00:00 19.4 19 Norte 42 Norte 0 -- -- 89
2019-08-06 21:00:00 19.4 17 Noroeste 36 Norte 0 -- -- 86
2019-08-06 20:00:00 20.3 18 Norte 38 Norte 0 -- -- 81
2019-08-06 19:00:00 21.2 28 Noroeste 41 Noroeste 0 -- -- 77
2019-08-06 18:00:00 22.2 28 Noroeste 46 Noroeste 0 -- -- 74
2019-08-06 17:00:00 22.7 31 Noroeste 47 Noroeste 0 -- -- 72
2019-08-06 16:00:00 23.6 31 Noroeste 46 Noroeste 0 -- -- 69
2019-08-06 15:00:00 23.2 30 Noroeste 43 Noroeste 0 -- -- 71
2019-08-06 14:00:00 23.1 33 Noroeste 45 Noroeste 0 -- -- 71
2019-08-06 13:00:00 22.8 27 Noroeste 44 Noroeste 0 -- -- 71
2019-08-06 12:00:00 22.5 28 Norte 46 Noroeste 0 -- -- 72
2019-08-06 11:00:00 21.5 31 Norte 43 Noroeste 0 -- -- 77
2019-08-06 10:00:00 20.6 30 Noroeste 45 Noroeste 0 -- -- 81
2019-08-06 09:00:00 19.8 29 Noroeste 41 Noroeste 0 -- -- 85
2019-08-06 08:00:00 19.1 24 Norte 42 Norte 0 -- -- 88
2019-08-06 07:00:00 19.2 22 Norte 36 Noroeste 0 -- -- 89
2019-08-06 06:00:00 19 24 Noroeste 43 Noroeste 0 -- -- 89
2019-08-06 05:00:00 19.3 24 Noroeste 42 Norte 0 -- -- 88
2019-08-06 04:00:00 19.3 27 Norte 42 Norte 0 -- -- 88
2019-08-06 03:00:00 19.4 27 Norte 42 Norte 0 -- -- 89
2019-08-06 02:00:00 19.5 25 Norte 50 Norte 0 -- -- 89
2019-08-06 01:00:00 19.4 32 Norte 49 Norte 0 -- -- 89
2019-08-06 00:00:00 19.4 26 Norte 41 Norte 0 -- -- 87
2019-08-05 23:00:00 19.3 27 Norte 42 Norte 0 -- -- 88
2019-08-05 22:00:00 19.4 22 Norte 42 Noroeste 0 -- -- 86
2019-08-05 21:00:00 19.5 22 Noroeste 46 Noroeste 0 -- -- 87
2019-08-05 20:00:00 20.1 29 Noroeste 45 Noroeste 0 -- -- 83
2019-08-05 19:00:00 21.6 27 Noroeste 43 Noroeste 0 -- -- 77
2019-08-05 18:00:00 22.5 28 Noroeste 45 Norte 0 -- -- 74
2019-08-05 17:00:00 22.9 28 Noroeste 51 Norte 0 -- -- 72
2019-08-05 16:00:00 24.2 27 Noroeste 43 Norte 0 -- -- 66
2019-08-05 15:00:00 23.9 28 Norte 41 Norte 0 -- -- 67
2019-08-05 14:00:00 23.5 29 Norte 41 Norte 0 -- -- 68
2019-08-05 13:00:00 23.5 25 Norte 43 Norte 0 -- -- 70
2019-08-05 12:00:00 23.5 26 Norte 41 Norte 0 -- -- 68
2019-08-05 11:00:00 22.3 24 Norte 37 Norte 0 -- -- 72
2019-08-05 10:00:00 20.8 21 Norte 35 Norte 0 -- -- 82
2019-08-05 09:00:00 19.9 24 Norte 38 Noroeste 0 -- -- 82
2019-08-05 08:00:00 19.1 23 Norte 36 Norte 0 -- -- 87
2019-08-05 07:00:00 19.3 18 Norte 35 Norte 0 -- -- 87
2019-08-05 06:00:00 19.2 24 Norte 37 Norte 0 -- -- 86
2019-08-05 05:00:00 19.4 18 Norte 31 Norte 0 -- -- 87
2019-08-05 04:00:00 19.3 18 Norte 32 Norte 0 -- -- 87
2019-08-05 03:00:00 19.4 16 Norte 35 Norte 0 -- -- 88
2019-08-05 02:00:00 19.4 23 Norte 36 Norte 0 -- -- 87
2019-08-05 01:00:00 19.5 18 Norte 33 Norte 0 -- -- 88
2019-08-05 00:00:00 19.4 22 Norte 38 Norte 0 -- -- 88
2019-08-04 23:00:00 19.5 26 Norte 39 Norte 0 -- -- 87
2019-08-04 22:00:00 19.9 18 Norte 32 Norte 0 -- -- 85
2019-08-04 21:00:00 20.3 22 Norte 37 Norte 0 -- -- 80
2019-08-04 20:00:00 20.6 22 Norte 39 Norte 0 -- -- 80
2019-08-04 19:00:00 21.2 23 Norte 41 Norte 0 -- -- 76
2019-08-04 18:00:00 21.4 26 Norte 50 Norte 0 -- -- 71
2019-08-04 17:00:00 22 31 Norte 45 Norte 0 -- -- 67
2019-08-04 16:00:00 23.6 27 Norte 48 Norte 0 -- -- 62
2019-08-04 15:00:00 23.2 27 Norte 42 Nordeste 0 -- -- 62
2019-08-04 14:00:00 22.9 25 Norte 46 Norte 0 -- -- 65
2019-08-04 13:00:00 22.1 26 Norte 39 Norte 0 -- -- 68
2019-08-04 12:00:00 21.4 24 Norte 39 Norte 0 -- -- 71
2019-08-04 11:00:00 20.5 24 Norte 36 Norte 0 -- -- 76
2019-08-04 10:00:00 19.8 19 Norte 39 Noroeste 0 -- -- 76
2019-08-04 09:00:00 19.7 19 Norte 41 Noroeste 0 -- -- 79
2019-08-04 08:00:00 19.2 18 Norte 35 Norte 0 -- -- 80
2019-08-04 07:00:00 19.1 21 Norte 30 Norte 0 -- -- 82
2019-08-04 06:00:00 19.1 19 Norte 32 Norte 0 -- -- 83
2019-08-04 05:00:00 19 16 Norte 32 Norte 0 -- -- 85
2019-08-04 04:00:00 18.9 21 Norte 31 Norte 0 -- -- 85
2019-08-04 03:00:00 18.8 18 Norte 32 Norte 0 -- -- 86
2019-08-04 02:00:00 18.6 15 Norte 32 Norte 0 -- -- 86
2019-08-04 01:00:00 18.7 19 Norte 30 Norte 0 -- -- 86
2019-08-04 00:00:00 18.7 19 Norte 31 Norte 0 -- -- 86
2019-08-03 23:00:00 18.7 18 Norte 29 Norte 0 -- -- 85
2019-08-03 22:00:00 18.9 17 Norte 28 Noroeste 0 -- -- 84
2019-08-03 21:00:00 19.1 17 Norte 30 Norte 0 -- -- 82
2019-08-03 20:00:00 19.7 21 Noroeste 36 Noroeste 0 -- -- 78
2019-08-03 19:00:00 20.7 19 Noroeste 39 Noroeste 0 -- -- 76
2019-08-03 18:00:00 21.2 23 Noroeste 41 Noroeste 0 -- -- 74
2019-08-03 17:00:00 22.1 28 Noroeste 44 Noroeste 0 -- -- 69
2019-08-03 16:00:00 22.9 26 Norte 47 Noroeste 0 -- -- 64
2019-08-03 15:00:00 22.8 28 Noroeste 46 Noroeste 0 -- -- 66
2019-08-03 14:00:00 22.6 28 Noroeste 41 Noroeste 0 -- -- 66
2019-08-03 13:00:00 22.2 30 Norte 40 Noroeste 0 -- -- 66
2019-08-03 12:00:00 21.5 29 Noroeste 41 Norte 0 -- -- 70
2019-08-03 11:00:00 21.4 24 Noroeste 39 Noroeste 0 -- -- 72
2019-08-03 10:00:00 20 26 Noroeste 37 Noroeste 0 -- -- 76
2019-08-03 09:00:00 19.2 24 Noroeste 39 Noroeste 0 -- -- 81
2019-08-03 08:00:00 18.3 17 Noroeste 33 Noroeste 0 -- -- 84
2019-08-03 07:00:00 18.1 19 Noroeste 33 Noroeste 0 -- -- 85
2019-08-03 06:00:00 18.2 18 Noroeste 31 Noroeste 0 -- -- 85
2019-08-03 05:00:00 18.3 15 Noroeste 30 Norte 0 -- -- 86
2019-08-03 04:00:00 18.2 17 Norte 26 Norte 0 -- -- 85
2019-08-03 03:00:00 18.5 10 Norte 27 Norte 0 -- -- 86
2019-08-03 02:00:00 18.6 14 Norte 28 Norte 0 -- -- 86
2019-08-03 01:00:00 18.7 19 Norte 32 Norte 0 -- -- 86
2019-08-03 00:00:00 18.8 19 Norte 34 Norte 0 -- -- 86
2019-08-02 23:00:00 18.8 21 Norte 39 Noroeste 0 -- -- 86
2019-08-02 22:00:00 18.8 22 Noroeste 45 Noroeste 0 -- -- 86
2019-08-02 21:00:00 19.1 31 Noroeste 45 Noroeste 0 -- -- 84
2019-08-02 20:00:00 19.7 31 Noroeste 46 Noroeste 0 -- -- 80
2019-08-02 19:00:00 20.6 33 Noroeste 48 Noroeste 0 -- -- 76
2019-08-02 18:00:00 21.6 32 Noroeste 46 Noroeste 0 -- -- 72
2019-08-02 17:00:00 22.6 30 Noroeste 43 Noroeste 0 -- -- 68
2019-08-02 16:00:00 23.2 30 Noroeste 43 Noroeste 0 -- -- 65
2019-08-02 15:00:00 22.9 27 Norte 38 Norte 0 -- -- 65
2019-08-02 14:00:00 23.4 26 Noroeste 39 Noroeste 0 -- -- 65
2019-08-02 13:00:00 23.1 20 Noroeste 35 Noroeste 0 -- -- 64
2019-08-02 12:00:00 22.1 23 Noroeste 38 Noroeste 0 -- -- 69
2019-08-02 11:00:00 22.1 19 Norte 33 Norte 0 -- -- 69
2019-08-02 10:00:00 20.4 14 Norte 31 Norte 0 -- -- 75
2019-08-02 09:00:00 19.1 15 Norte 30 Norte 0 -- -- 79
2019-08-02 08:00:00 18.6 16 Norte 28 Noroeste 0 -- -- 81
2019-08-02 07:00:00 18.5 13 Noroeste 23 Norte 0 -- -- 82
2019-08-02 06:00:00 18.5 17 Norte 32 Norte 0 -- -- 82
2019-08-02 05:00:00 18.7 14 Norte 31 Norte 0 -- -- 82
2019-08-02 04:00:00 18.6 16 Norte 31 Norte 0 -- -- 82
2019-08-02 03:00:00 18.8 16 Norte 31 Norte 0 -- -- 83
2019-08-02 02:00:00 18.8 20 Norte 30 Norte 0 -- -- 83
2019-08-02 01:00:00 18.7 15 Norte 37 Norte 0 -- -- 85
2019-08-02 00:00:00 18.9 18 Norte 36 Norte 0 -- -- 84
2019-08-01 23:00:00 19 22 Norte 44 Noroeste 0 -- -- 83
2019-08-01 22:00:00 19.3 26 Noroeste 41 Noroeste 0 -- -- 84
2019-08-01 21:00:00 19.3 26 Noroeste 46 Noroeste 0 -- -- 83
2019-08-01 20:00:00 19.8 28 Noroeste 43 Noroeste 0 -- -- 78
2019-08-01 19:00:00 20.6 31 Noroeste 43 Norte 0 -- -- 75
2019-08-01 18:00:00 22 29 Noroeste 42 Noroeste 0 -- -- 69
2019-08-01 17:00:00 22.7 31 Noroeste 43 Noroeste 0 -- -- 65
2019-08-01 16:00:00 23.2 29 Noroeste 46 Noroeste 0 -- -- 63
2019-08-01 15:00:00 23.2 25 Norte 39 Noroeste 0 -- -- 63
2019-08-01 14:00:00 22.8 24 Noroeste 40 Norte 0 -- -- 65
2019-08-01 13:00:00 21.9 27 Noroeste 42 Noroeste 0 -- -- 65
2019-08-01 12:00:00 21.4 15 Norte 36 Noroeste 0 -- -- 70
2019-08-01 11:00:00 21.3 17 Norte 37 Norte 0 -- -- 72
2019-08-01 10:00:00 20.1 17 Norte 30 Norte 0 -- -- 76
2019-08-01 09:00:00 19.1 19 Noroeste 33 Noroeste 0 -- -- 80
2019-08-01 08:00:00 18.7 17 Norte 34 Noroeste 0 -- -- 83
2019-08-01 07:00:00 18.2 22 Noroeste 34 Noroeste 0 -- -- 83
2019-08-01 06:00:00 18.2 21 Noroeste 36 Norte 0 -- -- 82
2019-08-01 05:00:00 18.3 21 Norte 38 Noroeste 0 -- -- 81
2019-08-01 04:00:00 18.7 24 Noroeste 37 Noroeste 0 -- -- 79
2019-08-01 03:00:00 18.7 22 Norte 38 Norte 0 -- -- 78
2019-08-01 02:00:00 18.6 20 Noroeste 36 Noroeste 0 -- -- 81
2019-08-01 01:00:00 18.7 23 Noroeste 39 Norte 0 -- -- 81
2019-08-01 00:00:00 18.5 24 Noroeste 39 Noroeste 0 -- -- 81
2019-07-31 23:00:00 18.5 26 Noroeste 41 Noroeste 0 -- -- 79
2019-07-31 22:00:00 18.8 26 Noroeste 44 Noroeste 0 -- -- 78
2019-07-31 21:00:00 19 26 Noroeste 44 Norte 0 -- -- 77
2019-07-31 20:00:00 19.6 29 Noroeste 43 Noroeste 0 -- -- 76
2019-07-31 19:00:00 20.2 26 Noroeste 43 Noroeste 0 -- -- 74
2019-07-31 18:00:00 21 26 Noroeste 55 Norte 0 -- -- 72
2019-07-31 17:00:00 22.1 35 Noroeste 49 Noroeste 0 -- -- 66
2019-07-31 16:00:00 21.6 36 Noroeste 51 Noroeste 0 -- -- 67
2019-07-31 15:00:00 22.3 31 Noroeste 49 Norte 0 -- -- 67
2019-07-31 14:00:00 22.5 32 Noroeste 49 Norte 0 -- -- 64
2019-07-31 13:00:00 21.9 32 Noroeste 51 Noroeste 0 -- -- 66
2019-07-31 12:00:00 21.9 30 Noroeste 49 Norte 0 -- -- 68
2019-07-31 11:00:00 20.3 28 Noroeste 49 Norte 0 -- -- 74
2019-07-31 10:00:00 20.4 21 Norte 41 Noroeste 0 -- -- 73
2019-07-31 09:00:00 19.5 20 Norte 44 Noroeste 0 -- -- 75
2019-07-31 08:00:00 18.3 24 Norte 40 Norte 0 -- -- 81
2019-07-31 07:00:00 18 24 Norte 42 Noroeste 0 -- -- 81
2019-07-31 06:00:00 18.2 24 Noroeste 44 Noroeste 0 -- -- 82
2019-07-31 05:00:00 18.2 25 Noroeste 45 Noroeste 0 -- -- 85
2019-07-31 04:00:00 18 31 Noroeste 52 Noroeste 0 -- -- 82
2019-07-31 03:00:00 18 28 Noroeste 51 Noroeste 0 -- -- 84
2019-07-31 02:00:00 18.3 29 Noroeste 53 Noroeste 0 -- -- 83
2019-07-31 01:00:00 18.2 28 Noroeste 51 Norte 0 -- -- 83
2019-07-31 00:00:00 18.5 28 Noroeste 53 Noroeste 0 -- -- 83
2019-07-30 23:00:00 18.5 35 Noroeste 63 Norte 0 -- -- 82
2019-07-30 22:00:00 18.7 33 Noroeste 62 Noroeste 0 -- -- 82
2019-07-30 21:00:00 18.8 33 Noroeste 55 Noroeste 0 -- -- 82
2019-07-30 20:00:00 19.6 32 Noroeste 53 Norte 0 -- -- 78
2019-07-30 19:00:00 20.5 32 Noroeste 52 Noroeste 0 -- -- 76
2019-07-30 18:00:00 21.4 33 Noroeste 54 Norte 0 -- -- 73
2019-07-30 17:00:00 22.3 32 Noroeste 56 Norte 0 -- -- 68
2019-07-30 16:00:00 22.8 34 Noroeste 60 Noroeste 0 -- -- 65
2019-07-30 15:00:00 22.4 32 Noroeste 56 Norte 0 -- -- 68
2019-07-30 14:00:00 21.9 37 Norte 60 Noroeste 0 -- -- 69
2019-07-30 13:00:00 21.1 28 Noroeste 48 Noroeste 0 -- -- 73
2019-07-30 12:00:00 20 28 Noroeste 48 Noroeste 0 -- -- 81
2019-07-30 11:00:00 19.1 29 Noroeste 45 Noroeste 0 -- -- 84
2019-07-30 10:00:00 19.1 20 Norte 41 Norte 0 -- -- 85
2019-07-30 09:00:00 18.3 21 Norte 44 Noroeste 0 -- -- 89
2019-07-30 08:00:00 18.8 22 Norte 49 Norte 0 -- -- 88
2019-07-30 07:00:00 18.6 28 Norte 51 Noroeste 0 -- -- 87
2019-07-30 06:00:00 18.9 27 Norte 43 Norte 0 -- -- 89
2019-07-30 05:00:00 18.9 28 Norte 46 Noroeste 0 -- -- 90
2019-07-30 04:00:00 19.3 24 Norte 46 Noroeste 0 -- -- 90
2019-07-30 03:00:00 18.9 28 Noroeste 55 Noroeste 0 -- -- 91
2019-07-30 02:00:00 19.8 25 Norte 55 Noroeste 0 -- -- 89
2019-07-30 01:00:00 19.9 31 Norte 54 Noroeste 0 -- -- 88
2019-07-30 00:00:00 20.3 30 Norte 60 Norte 0 -- -- 89
2019-07-29 23:00:00 20 35 Norte 58 Norte 0 -- -- 89
2019-07-29 22:00:00 19.9 33 Noroeste 60 Norte 0 -- -- 90
2019-07-29 21:00:00 20 34 Noroeste 55 Norte 0 -- -- 89
2019-07-29 20:00:00 20.5 29 Noroeste 52 Norte 0 -- -- 84
2019-07-29 19:00:00 21.3 31 Noroeste 54 Norte 0 -- -- 78
2019-07-29 18:00:00 22.4 30 Norte 51 Noroeste 0 -- -- 71
2019-07-29 17:00:00 22.5 26 Norte 49 Noroeste 0 -- -- 70
2019-07-29 16:00:00 22.6 34 Noroeste 53 Norte 0 -- -- 69
2019-07-29 15:00:00 23.1 30 Noroeste 53 Noroeste 0 -- -- 68
2019-07-29 14:00:00 22.8 24 Norte 46 Norte 0 -- -- 65
2019-07-29 13:00:00 22.5 32 Norte 45 Norte 0 -- -- 65
2019-07-29 12:00:00 22 27 Norte 44 Norte 0 -- -- 67
2019-07-29 11:00:00 21.4 24 Norte 47 Noroeste 0 -- -- 69
2019-07-29 10:00:00 20.5 20 Norte 38 Noroeste 0 -- -- 78
2019-07-29 09:00:00 19.6 25 Noroeste 44 Noroeste 0 -- -- 76
2019-07-29 08:00:00 19 19 Norte 37 Norte 0 -- -- 79
2019-07-29 07:00:00 18.8 22 Norte 41 Noroeste 0 -- -- 79
2019-07-29 06:00:00 18.9 25 Norte 43 Noroeste 0 -- -- 79
2019-07-29 05:00:00 18.8 23 Norte 39 Norte 0 -- -- 79
2019-07-29 04:00:00 19.1 21 Noroeste 39 Noroeste 0 -- -- 84
2019-07-29 03:00:00 19 24 Norte 38 Noroeste 0 -- -- 83
2019-07-29 02:00:00 19.1 25 Norte 44 Noroeste 0 -- -- 82
2019-07-29 01:00:00 19.4 23 Norte 39 Noroeste 0 -- -- 80
2019-07-29 00:00:00 19.5 22 Norte 45 Norte 0 -- -- 81
2019-07-28 23:00:00 19.3 27 Norte 49 Norte 0 -- -- 82
2019-07-28 22:00:00 19.7 21 Noroeste 38 Norte 0 -- -- 83
2019-07-28 21:00:00 19.8 21 Norte 45 Noroeste 0 -- -- 82
2019-07-28 20:00:00 20.4 23 Noroeste 50 Norte 0 -- -- 78
2019-07-28 19:00:00 21.8 20 Norte 43 Norte 0 -- -- 71
2019-07-28 18:00:00 21.3 26 Norte 59 Norte 0 -- -- 77
2019-07-28 17:00:00 22.8 28 Norte 47 Noroeste 0 -- -- 71
2019-07-28 16:00:00 21.8 25 Norte 39 Noroeste 0 -- -- 77
2019-07-28 15:00:00 21.4 23 Norte 38 Norte 0 -- -- 89
2019-07-28 14:00:00 20 27 Norte 44 Norte 0.2 -- -- 94
2019-07-28 13:00:00 21.3 22 Noroeste 38 Noroeste 0 -- -- 89
2019-07-28 12:00:00 22.1 22 Norte 37 Norte 0 -- -- 92
2019-07-28 11:00:00 20.2 23 Noroeste 35 Noroeste 0 -- -- 97
2019-07-28 10:00:00 20.1 18 Noroeste 32 Norte 0 -- -- 97
2019-07-28 09:00:00 19.6 16 Norte 39 Noroeste 0 -- -- 97
2019-07-28 08:00:00 19.3 17 Norte 32 Noroeste 0.2 -- -- 97
2019-07-28 07:00:00 19.2 23 Noroeste 37 Norte 0 -- -- 96
2019-07-28 06:00:00 19.5 17 Noroeste 40 Noroeste 0 -- -- 94
2019-07-28 05:00:00 19.7 18 Norte 40 Noroeste 0 -- -- 92
2019-07-28 04:00:00 19.6 23 Noroeste 38 Norte 0 -- -- 92
2019-07-28 03:00:00 19.5 23 Norte 42 Norte 0 -- -- 92
2019-07-28 02:00:00 19.5 23 Noroeste 42 Noroeste 0 -- -- 92
2019-07-28 01:00:00 19.5 21 Norte 37 Noroeste 0 -- -- 90
2019-07-28 00:00:00 19.6 23 Norte 39 Norte 0 -- -- 89
2019-07-27 23:00:00 19.6 22 Noroeste 48 Noroeste 0 -- -- 89
2019-07-27 22:00:00 19.2 31 Noroeste 45 Noroeste 0 -- -- 87
2019-07-26 11:00:00 -- -- -- -- -- -- -- -- --
2019-07-26 10:00:00 -- -- -- -- -- -- -- -- --
2019-07-26 09:00:00 19.5 14 Norte 33 Norte 0 -- -- 94
2019-07-26 08:00:00 19.1 18 Norte 33 Norte 0 -- -- 95
2019-07-26 07:00:00 19.2 22 Norte 40 Norte 0 -- -- 94
2019-07-26 06:00:00 19.1 27 Norte 41 Norte 0 -- -- 93
2019-07-26 05:00:00 19.5 28 Norte 42 Noroeste 0 -- -- 86
2019-07-26 04:00:00 19.6 23 Noroeste 33 Norte 0 -- -- 84
2019-07-26 03:00:00 19.2 26 Norte 40 Norte 0 -- -- 90
2019-07-26 02:00:00 19.3 21 Norte 36 Norte 0 -- -- 91
2019-07-26 01:00:00 19.3 20 Norte 30 Noroeste 0 -- -- 91
2019-07-26 00:00:00 19.7 15 Norte 47 Norte 0 -- -- 85